sensor_id;sensor_type;location;lat;lon;timestamp;pressure;altitude;pressure_sealevel;temperature;humidity
54194;BME280;40102;50.906;6.972;2023-02-02T00:01:35;101486.91;;;6.76;86.51
54194;BME280;40102;50.906;6.972;2023-02-02T00:04:01;101472.78;;;6.74;87.06
54194;BME280;40102;50.906;6.972;2023-02-02T00:06:28;101478.06;;;6.76;86.96
54194;BME280;40102;50.906;6.972;2023-02-02T00:09:00;101482.44;;;6.78;86.76
54194;BME280;40102;50.906;6.972;2023-02-02T00:11:26;101470.00;;;6.79;86.95
54194;BME280;40102;50.906;6.972;2023-02-02T00:13:52;101474.44;;;6.78;86.62
54194;BME280;40102;50.906;6.972;2023-02-02T00:18:54;101476.19;;;6.79;87.00
54194;BME280;40102;50.906;6.972;2023-02-02T00:21:20;101476.19;;;6.79;86.89
54194;BME280;40102;50.906;6.972;2023-02-02T00:23:46;101479.91;;;6.74;87.16
54194;BME280;40102;50.906;6.972;2023-02-02T00:26:11;101488.66;;;6.77;87.01
54194;BME280;40102;50.906;6.972;2023-02-02T00:28:37;101470.06;;;6.77;86.94
54194;BME280;40102;50.906;6.972;2023-02-02T00:31:02;101477.91;;;6.82;86.91
54194;BME280;40102;50.906;6.972;2023-02-02T00:33:28;101482.44;;;6.78;87.13
54194;BME280;40102;50.906;6.972;2023-02-02T00:35:53;101475.41;;;6.76;87.17
54194;BME280;40102;50.906;6.972;2023-02-02T00:38:19;101474.53;;;6.75;87.08
54194;BME280;40102;50.906;6.972;2023-02-02T00:40:44;101478.13;;;6.74;87.36
54194;BME280;40102;50.906;6.972;2023-02-02T00:43:10;101473.75;;;6.72;87.10
54194;BME280;40102;50.906;6.972;2023-02-02T00:45:36;101470.09;;;6.76;87.07
54194;BME280;40102;50.906;6.972;2023-02-02T00:48:02;101468.31;;;6.76;86.56
54194;BME280;40102;50.906;6.972;2023-02-02T00:50:28;101470.91;;;6.78;86.67
54194;BME280;40102;50.906;6.972;2023-02-02T00:52:54;101474.38;;;6.81;86.42
54194;BME280;40102;50.906;6.972;2023-02-02T00:55:19;101478.81;;;6.81;87.01
54194;BME280;40102;50.906;6.972;2023-02-02T00:57:46;101480.59;;;6.80;87.27
54194;BME280;40102;50.906;6.972;2023-02-02T01:00:23;101469.09;;;6.80;86.91
54194;BME280;40102;50.906;6.972;2023-02-02T01:03:02;101464.66;;;6.80;87.00
54194;BME280;40102;50.906;6.972;2023-02-02T01:05:35;101468.22;;;6.79;87.26
54194;BME280;40102;50.906;6.972;2023-02-02T01:08:01;101459.41;;;6.77;87.62
54194;BME280;40102;50.906;6.972;2023-02-02T01:10:26;101461.19;;;6.77;87.95
54194;BME280;40102;50.906;6.972;2023-02-02T01:12:52;101469.09;;;6.80;87.54
54194;BME280;40102;50.906;6.972;2023-02-02T01:15:18;101470.72;;;6.86;87.56
54194;BME280;40102;50.906;6.972;2023-02-02T01:17:43;101462.84;;;6.81;87.87
54194;BME280;40102;50.906;6.972;2023-02-02T01:20:19;101468.25;;;6.78;88.02
54194;BME280;40102;50.906;6.972;2023-02-02T01:22:46;101463.91;;;6.75;88.05
54194;BME280;40102;50.906;6.972;2023-02-02T01:25:12;101471.88;;;6.75;88.14
54194;BME280;40102;50.906;6.972;2023-02-02T01:27:38;101463.13;;;6.72;88.21
54194;BME280;40102;50.906;6.972;2023-02-02T01:30:03;101473.72;;;6.73;88.13
54194;BME280;40102;50.906;6.972;2023-02-02T01:32:29;101478.16;;;6.73;87.93
54194;BME280;40102;50.906;6.972;2023-02-02T01:34:54;101480.72;;;6.76;87.84
54194;BME280;40102;50.906;6.972;2023-02-02T01:37:20;101480.69;;;6.77;87.93
54194;BME280;40102;50.906;6.972;2023-02-02T01:39:46;101486.72;;;6.84;87.98
54194;BME280;40102;50.906;6.972;2023-02-02T01:42:14;101489.38;;;6.84;88.55
54194;BME280;40102;50.906;6.972;2023-02-02T01:47:38;101488.66;;;6.77;89.96
54194;BME280;40102;50.906;6.972;2023-02-02T01:50:07;101490.44;;;6.77;90.97
54194;BME280;40102;50.906;6.972;2023-02-02T01:52:35;101492.31;;;6.73;91.29
54194;BME280;40102;50.906;6.972;2023-02-02T01:55:08;101502.09;;;6.73;91.37
54194;BME280;40102;50.906;6.972;2023-02-02T01:57:47;101490.63;;;6.71;91.32
54194;BME280;40102;50.906;6.972;2023-02-02T02:00:15;101494.16;;;6.71;91.19
54194;BME280;40102;50.906;6.972;2023-02-02T02:02:47;101494.19;;;6.70;91.38
54194;BME280;40102;50.906;6.972;2023-02-02T02:05:17;101498.72;;;6.66;91.86
54194;BME280;40102;50.906;6.972;2023-02-02T02:07:46;101507.53;;;6.68;91.77
54194;BME280;40102;50.906;6.972;2023-02-02T02:10:16;101506.63;;;6.69;91.82
54194;BME280;40102;50.906;6.972;2023-02-02T02:12:43;101503.09;;;6.69;91.25
54194;BME280;40102;50.906;6.972;2023-02-02T02:15:09;101495.16;;;6.67;91.34
54194;BME280;40102;50.906;6.972;2023-02-02T02:20:46;101502.25;;;6.67;91.65
54194;BME280;40102;50.906;6.972;2023-02-02T02:39:01;101475.66;;;6.67;92.05
54194;BME280;40102;50.906;6.972;2023-02-02T02:41:33;101502.28;;;6.65;91.93
54194;BME280;40102;50.906;6.972;2023-02-02T02:44:05;101481.91;;;6.66;91.95
54194;BME280;40102;50.906;6.972;2023-02-02T02:46:34;101473.97;;;6.64;91.75
54194;BME280;40102;50.906;6.972;2023-02-02T02:49:00;101476.41;;;6.72;90.76
54194;BME280;40102;50.906;6.972;2023-02-02T02:54:37;101482.69;;;6.69;90.67
54194;BME280;40102;50.906;6.972;2023-02-02T03:07:46;101507.50;;;6.70;90.48
54194;BME280;40102;50.906;6.972;2023-02-02T03:10:13;101480.03;;;6.69;90.50
54194;BME280;40102;50.906;6.972;2023-02-02T03:12:49;101480.94;;;6.68;90.68
54194;BME280;40102;50.906;6.972;2023-02-02T03:15:17;101499.50;;;6.70;90.85
54194;BME280;40102;50.906;6.972;2023-02-02T03:17:45;101490.63;;;6.71;90.85
54194;BME280;40102;50.906;6.972;2023-02-02T03:20:12;101497.72;;;6.70;90.83
54194;BME280;40102;50.906;6.972;2023-02-02T03:22:38;101498.56;;;6.72;90.75
54194;BME280;40102;50.906;6.972;2023-02-02T03:25:05;101490.53;;;6.74;90.55
54194;BME280;40102;50.906;6.972;2023-02-02T03:27:31;101494.09;;;6.73;90.57
54194;BME280;40102;50.906;6.972;2023-02-02T03:29:56;101483.56;;;6.70;91.21
54194;BME280;40102;50.906;6.972;2023-02-02T03:32:22;101496.91;;;6.68;91.13
54194;BME280;40102;50.906;6.972;2023-02-02T03:34:47;101503.97;;;6.69;91.35
54194;BME280;40102;50.906;6.972;2023-02-02T03:37:13;101508.53;;;6.64;91.80
54194;BME280;40102;50.906;6.972;2023-02-02T03:39:38;101503.22;;;6.64;91.75
54194;BME280;40102;50.906;6.972;2023-02-02T03:42:04;101505.00;;;6.64;91.85
54194;BME280;40102;50.906;6.972;2023-02-02T03:44:29;101497.03;;;6.64;91.55
54194;BME280;40102;50.906;6.972;2023-02-02T03:46:54;101511.06;;;6.69;91.72
54194;BME280;40102;50.906;6.972;2023-02-02T03:49:20;101501.34;;;6.68;91.69
54194;BME280;40102;50.906;6.972;2023-02-02T03:51:46;101512.75;;;6.71;91.95
54194;BME280;40102;50.906;6.972;2023-02-02T03:54:12;101519.91;;;6.69;92.02
54194;BME280;40102;50.906;6.972;2023-02-02T03:56:41;101497.81;;;6.67;91.83
54194;BME280;40102;50.906;6.972;2023-02-02T03:59:17;101512.00;;;6.66;92.30
54194;BME280;40102;50.906;6.972;2023-02-02T04:01:43;101506.78;;;6.63;92.33
54194;BME280;40102;50.906;6.972;2023-02-02T04:04:08;101492.69;;;6.60;92.54
54194;BME280;40102;50.906;6.972;2023-02-02T04:06:34;101524.53;;;6.63;92.41
54194;BME280;40102;50.906;6.972;2023-02-02T04:09:00;101513.88;;;6.63;92.12
54194;BME280;40102;50.906;6.972;2023-02-02T04:11:25;101520.91;;;6.65;92.47
54194;BME280;40102;50.906;6.972;2023-02-02T04:13:51;101506.75;;;6.65;92.51
54194;BME280;40102;50.906;6.972;2023-02-02T04:16:16;101505.00;;;6.64;92.48
54194;BME280;40102;50.906;6.972;2023-02-02T04:18:41;101510.41;;;6.61;92.58
54194;BME280;40102;50.906;6.972;2023-02-02T04:21:07;101509.34;;;6.66;92.35
54194;BME280;40102;50.906;6.972;2023-02-02T04:23:34;101520.94;;;6.64;92.29
54194;BME280;40102;50.906;6.972;2023-02-02T04:26:00;101527.13;;;6.64;91.88
54194;BME280;40102;50.906;6.972;2023-02-02T04:28:26;101529.78;;;6.64;92.21
54194;BME280;40102;50.906;6.972;2023-02-02T04:30:53;101527.09;;;6.66;92.18
54194;BME280;40102;50.906;6.972;2023-02-02T04:33:19;101528.91;;;6.64;92.21
54194;BME280;40102;50.906;6.972;2023-02-02T04:35:45;101528.09;;;6.62;92.32
54194;BME280;40102;50.906;6.972;2023-02-02T04:38:14;101540.47;;;6.63;92.96
54194;BME280;40102;50.906;6.972;2023-02-02T04:40:41;101519.25;;;6.61;93.24
54194;BME280;40102;50.906;6.972;2023-02-02T04:43:07;101526.34;;;6.61;93.81
54194;BME280;40102;50.906;6.972;2023-02-02T04:45:32;101534.34;;;6.59;94.11
54194;BME280;40102;50.906;6.972;2023-02-02T04:47:58;101532.63;;;6.58;94.04
54194;BME280;40102;50.906;6.972;2023-02-02T04:50:23;101532.56;;;6.60;94.27
54194;BME280;40102;50.906;6.972;2023-02-02T04:52:48;101536.97;;;6.61;94.46
54194;BME280;40102;50.906;6.972;2023-02-02T04:55:14;101536.22;;;6.56;94.53
54194;BME280;40102;50.906;6.972;2023-02-02T04:57:40;101541.53;;;6.56;94.13
54194;BME280;40102;50.906;6.972;2023-02-02T05:00:06;101541.47;;;6.59;94.42
54194;BME280;40102;50.906;6.972;2023-02-02T05:02:34;101547.78;;;6.55;94.68
54194;BME280;40102;50.906;6.972;2023-02-02T05:05:00;101538.88;;;6.56;95.00
54194;BME280;40102;50.906;6.972;2023-02-02T05:07:26;101532.78;;;6.52;95.36
54194;BME280;40102;50.906;6.972;2023-02-02T05:09:51;101540.75;;;6.52;95.49
54194;BME280;40102;50.906;6.972;2023-02-02T05:12:16;101541.63;;;6.53;95.29
54194;BME280;40102;50.906;6.972;2023-02-02T05:14:42;101557.56;;;6.53;95.68
54194;BME280;40102;50.906;6.972;2023-02-02T05:17:07;101554.94;;;6.51;95.95
54194;BME280;40102;50.906;6.972;2023-02-02T05:19:32;101546.97;;;6.51;95.79
54194;BME280;40102;50.906;6.972;2023-02-02T05:22:01;101547.84;;;6.52;96.28
54194;BME280;40102;50.906;6.972;2023-02-02T05:24:26;101545.28;;;6.48;96.42
54194;BME280;40102;50.906;6.972;2023-02-02T05:27:10;101549.78;;;6.45;96.69
54194;BME280;40102;50.906;6.972;2023-02-02T05:29:36;101550.59;;;6.48;96.02
54194;BME280;40102;50.906;6.972;2023-02-02T05:32:01;101546.97;;;6.51;96.02
54194;BME280;40102;50.906;6.972;2023-02-02T05:34:26;101546.03;;;6.54;96.20
54194;BME280;40102;50.906;6.972;2023-02-02T05:36:52;101555.06;;;6.46;96.44
54194;BME280;40102;50.906;6.972;2023-02-02T05:39:17;101546.25;;;6.44;96.74
54194;BME280;40102;50.906;6.972;2023-02-02T05:41:43;101541.66;;;6.51;96.29
54194;BME280;40102;50.906;6.972;2023-02-02T05:44:11;101538.06;;;6.54;96.47
54194;BME280;40102;50.906;6.972;2023-02-02T05:46:37;101538.31;;;6.43;96.92
54194;BME280;40102;50.906;6.972;2023-02-02T05:49:02;101551.66;;;6.41;97.42
54194;BME280;40102;50.906;6.972;2023-02-02T05:51:42;101551.66;;;6.41;97.20
54194;BME280;40102;50.906;6.972;2023-02-02T05:54:08;101527.66;;;6.44;97.00
54194;BME280;40102;50.906;6.972;2023-02-02T05:56:34;101539.06;;;6.48;96.91
54194;BME280;40102;50.906;6.972;2023-02-02T05:58:59;101534.72;;;6.45;96.96
54194;BME280;40102;50.906;6.972;2023-02-02T06:01:25;101526.91;;;6.39;97.01
54194;BME280;40102;50.906;6.972;2023-02-02T06:03:50;101544.63;;;6.39;97.21
54194;BME280;40102;50.906;6.972;2023-02-02T06:06:17;101528.72;;;6.37;97.22
54194;BME280;40102;50.906;6.972;2023-02-02T06:08:42;101524.38;;;6.35;97.04
54194;BME280;40102;50.906;6.972;2023-02-02T06:11:13;101536.66;;;6.39;96.76
54194;BME280;40102;50.906;6.972;2023-02-02T06:13:40;101544.66;;;6.37;97.04
54194;BME280;40102;50.906;6.972;2023-02-02T06:16:05;101548.25;;;6.36;96.96
54194;BME280;40102;50.906;6.972;2023-02-02T06:18:33;101564.94;;;6.41;96.86
54194;BME280;40102;50.906;6.972;2023-02-02T06:21:00;101572.00;;;6.42;96.25
54194;BME280;40102;50.906;6.972;2023-02-02T06:23:29;101572.88;;;6.43;96.45
54194;BME280;40102;50.906;6.972;2023-02-02T06:25:55;101570.22;;;6.43;96.39
54194;BME280;40102;50.906;6.972;2023-02-02T06:28:20;101566.75;;;6.39;96.16
54194;BME280;40102;50.906;6.972;2023-02-02T06:30:46;101573.78;;;6.42;96.13
54194;BME280;40102;50.906;6.972;2023-02-02T06:33:11;101573.75;;;6.43;95.83
54194;BME280;40102;50.906;6.972;2023-02-02T06:35:37;101568.41;;;6.45;95.64
54194;BME280;40102;50.906;6.972;2023-02-02T06:38:03;101574.53;;;6.47;95.36
54194;BME280;40102;50.906;6.972;2023-02-02T06:40:28;101591.31;;;6.49;95.10
54194;BME280;40102;50.906;6.972;2023-02-02T06:42:58;101604.53;;;6.52;95.13
54194;BME280;40102;50.906;6.972;2023-02-02T06:45:24;101578.88;;;6.51;94.91
54194;BME280;40102;50.906;6.972;2023-02-02T06:47:50;101591.25;;;6.52;94.75
54194;BME280;40102;50.906;6.972;2023-02-02T06:50:16;101585.91;;;6.54;94.38
54194;BME280;40102;50.906;6.972;2023-02-02T06:52:48;101580.63;;;6.52;94.71
54194;BME280;40102;50.906;6.972;2023-02-02T06:55:14;101582.41;;;6.52;94.74
54194;BME280;40102;50.906;6.972;2023-02-02T06:57:39;101577.91;;;6.54;94.27
54194;BME280;40102;50.906;6.972;2023-02-02T07:00:05;101580.50;;;6.57;94.16
54194;BME280;40102;50.906;6.972;2023-02-02T07:02:31;101598.22;;;6.56;94.24
54194;BME280;40102;50.906;6.972;2023-02-02T07:04:56;101600.84;;;6.58;94.48
54194;BME280;40102;50.906;6.972;2023-02-02T07:07:22;101566.38;;;6.55;94.32
54194;BME280;40102;50.906;6.972;2023-02-02T07:09:50;101584.94;;;6.56;94.04
54194;BME280;40102;50.906;6.972;2023-02-02T07:12:15;101579.66;;;6.55;94.01
54194;BME280;40102;50.906;6.972;2023-02-02T07:14:43;101593.81;;;6.55;93.89
54194;BME280;40102;50.906;6.972;2023-02-02T07:17:09;101596.50;;;6.55;94.09
54194;BME280;40102;50.906;6.972;2023-02-02T07:19:34;101604.47;;;6.55;93.77
54194;BME280;40102;50.906;6.972;2023-02-02T07:21:59;101586.75;;;6.54;93.64
54194;BME280;40102;50.906;6.972;2023-02-02T07:24:25;101600.97;;;6.53;93.95
54194;BME280;40102;50.906;6.972;2023-02-02T07:26:51;101594.75;;;6.54;93.89
54194;BME280;40102;50.906;6.972;2023-02-02T07:29:17;101603.56;;;6.56;93.56
54194;BME280;40102;50.906;6.972;2023-02-02T07:31:42;101600.84;;;6.58;93.49
54194;BME280;40102;50.906;6.972;2023-02-02T07:34:08;101618.59;;;6.57;93.70
54194;BME280;40102;50.906;6.972;2023-02-02T07:36:34;101600.97;;;6.53;93.97
54194;BME280;40102;50.906;6.972;2023-02-02T07:38:59;101615.88;;;6.59;93.62
54194;BME280;40102;50.906;6.972;2023-02-02T07:41:28;101620.28;;;6.60;93.72
54194;BME280;40102;50.906;6.972;2023-02-02T07:43:53;101621.28;;;6.56;93.59
54194;BME280;40102;50.906;6.972;2023-02-02T07:46:19;101627.41;;;6.59;93.81
54194;BME280;40102;50.906;6.972;2023-02-02T07:48:44;101618.69;;;6.53;93.63
54194;BME280;40102;50.906;6.972;2023-02-02T07:51:13;101617.69;;;6.58;93.88
54194;BME280;40102;50.906;6.972;2023-02-02T07:53:45;101607.28;;;6.49;94.35
54194;BME280;40102;50.906;6.972;2023-02-02T07:56:22;101625.72;;;6.55;94.10
54194;BME280;40102;50.906;6.972;2023-02-02T07:58:50;101633.69;;;6.55;94.19
54194;BME280;40102;50.906;6.972;2023-02-02T08:01:16;101610.75;;;6.51;94.23
54194;BME280;40102;50.906;6.972;2023-02-02T08:03:42;101618.75;;;6.51;94.23
54194;BME280;40102;50.906;6.972;2023-02-02T08:06:26;101646.94;;;6.57;94.31
54194;BME280;40102;50.906;6.972;2023-02-02T08:08:53;101626.53;;;6.59;94.44
54194;BME280;40102;50.906;6.972;2023-02-02T08:11:20;101621.22;;;6.59;94.55
54194;BME280;40102;50.906;6.972;2023-02-02T08:13:53;101625.72;;;6.55;94.63
54194;BME280;40102;50.906;6.972;2023-02-02T08:16:19;101615.09;;;6.55;94.87
54194;BME280;40102;50.906;6.972;2023-02-02T08:18:45;101621.31;;;6.54;94.81
54194;BME280;40102;50.906;6.972;2023-02-02T08:21:11;101623.91;;;6.57;94.77
54194;BME280;40102;50.906;6.972;2023-02-02T08:23:38;101634.47;;;6.60;95.12
54194;BME280;40102;50.906;6.972;2023-02-02T08:26:06;101629.34;;;6.53;95.05
54194;BME280;40102;50.906;6.972;2023-02-02T08:28:32;101637.28;;;6.54;95.34
54194;BME280;40102;50.906;6.972;2023-02-02T08:31:04;101634.72;;;6.49;95.74
54194;BME280;40102;50.906;6.972;2023-02-02T08:33:29;101638.13;;;6.55;95.37
54194;BME280;40102;50.906;6.972;2023-02-02T08:35:55;101630.22;;;6.53;95.11
54194;BME280;40102;50.906;6.972;2023-02-02T08:38:22;101643.47;;;6.55;95.14
54194;BME280;40102;50.906;6.972;2023-02-02T08:40:48;101645.31;;;6.51;94.80
54194;BME280;40102;50.906;6.972;2023-02-02T08:43:13;101636.41;;;6.54;94.81
54194;BME280;40102;50.906;6.972;2023-02-02T08:45:41;101650.41;;;6.60;94.59
54194;BME280;40102;50.906;6.972;2023-02-02T08:48:07;101652.19;;;6.60;94.71
54194;BME280;40102;50.906;6.972;2023-02-02T08:50:32;101649.56;;;6.58;95.08
54194;BME280;40102;50.906;6.972;2023-02-02T08:52:58;101648.66;;;6.59;94.90
54194;BME280;40102;50.906;6.972;2023-02-02T08:55:23;101652.19;;;6.60;94.95
54194;BME280;40102;50.906;6.972;2023-02-02T08:57:49;101648.63;;;6.61;94.55
54194;BME280;40102;50.906;6.972;2023-02-02T09:00:14;101650.38;;;6.62;94.60
54194;BME280;40102;50.906;6.972;2023-02-02T09:02:40;101673.19;;;6.70;94.37
54194;BME280;40102;50.906;6.972;2023-02-02T09:05:05;101664.44;;;6.67;94.79
54194;BME280;40102;50.906;6.972;2023-02-02T09:07:31;101678.75;;;6.61;95.53
54194;BME280;40102;50.906;6.972;2023-02-02T09:09:56;101647.72;;;6.62;95.15
54194;BME280;40102;50.906;6.972;2023-02-02T09:12:23;101702.56;;;6.66;95.52
54194;BME280;40102;50.906;6.972;2023-02-02T09:14:49;101649.50;;;6.61;95.32
54194;BME280;40102;50.906;6.972;2023-02-02T09:17:14;101669.81;;;6.64;95.64
54194;BME280;40102;50.906;6.972;2023-02-02T09:19:39;101669.94;;;6.59;95.53
54194;BME280;40102;50.906;6.972;2023-02-02T09:22:05;101670.66;;;6.66;95.78
54194;BME280;40102;50.906;6.972;2023-02-02T09:24:30;101674.38;;;6.59;96.07
54194;BME280;40102;50.906;6.972;2023-02-02T09:26:56;101697.25;;;6.66;96.01
54194;BME280;40102;50.906;6.972;2023-02-02T09:29:21;101684.13;;;6.58;95.81
54194;BME280;40102;50.906;6.972;2023-02-02T09:31:46;101689.25;;;6.66;95.35
54194;BME280;40102;50.906;6.972;2023-02-02T09:34:13;101687.38;;;6.71;94.87
54194;BME280;40102;50.906;6.972;2023-02-02T09:36:39;101689.16;;;6.70;94.73
54194;BME280;40102;50.906;6.972;2023-02-02T09:39:05;101707.72;;;6.72;95.01
54194;BME280;40102;50.906;6.972;2023-02-02T09:52:22;101734.28;;;6.73;95.59
54194;BME280;40102;50.906;6.972;2023-02-02T09:54:51;101750.28;;;6.72;96.15
54194;BME280;40102;50.906;6.972;2023-02-02T09:57:22;101729.97;;;6.68;96.34
54194;BME280;40102;50.906;6.972;2023-02-02T09:59:50;101733.50;;;6.68;96.20
54194;BME280;40102;50.906;6.972;2023-02-02T10:02:34;101745.88;;;6.71;97.03
54194;BME280;40102;50.906;6.972;2023-02-02T10:05:22;101749.47;;;6.68;96.80
54194;BME280;40102;50.906;6.972;2023-02-02T10:07:52;101747.69;;;6.69;97.09
54194;BME280;40102;50.906;6.972;2023-02-02T10:10:24;101741.50;;;6.68;97.40
54194;BME280;40102;50.906;6.972;2023-02-02T10:18:26;101762.53;;;6.77;97.32
54194;BME280;40102;50.906;6.972;2023-02-02T10:21:05;101765.31;;;6.73;97.61
54194;BME280;40102;50.906;6.972;2023-02-02T10:23:37;101775.94;;;6.73;97.84
54194;BME280;40102;50.906;6.972;2023-02-02T10:26:19;101764.47;;;6.71;98.08
54194;BME280;40102;50.906;6.972;2023-02-02T10:42:36;101781.28;;;6.73;97.67
54194;BME280;40102;50.906;6.972;2023-02-02T10:45:14;101812.97;;;6.82;96.99
54194;BME280;40102;50.906;6.972;2023-02-02T10:47:42;101788.25;;;6.77;97.26
54194;BME280;40102;50.906;6.972;2023-02-02T10:52:37;101785.63;;;6.75;96.60
54194;BME280;40102;50.906;6.972;2023-02-02T11:03:11;101787.25;;;6.82;95.79
54194;BME280;40102;50.906;6.972;2023-02-02T11:05:37;101785.44;;;6.85;95.64
54194;BME280;40102;50.906;6.972;2023-02-02T11:08:39;101789.84;;;6.86;95.42
54194;BME280;40102;50.906;6.972;2023-02-02T11:11:34;101780.91;;;6.88;95.17
54194;BME280;40102;50.906;6.972;2023-02-02T11:16:39;101778.19;;;6.91;94.95
54194;BME280;40102;50.906;6.972;2023-02-02T11:21:49;101779.06;;;6.92;94.93
54194;BME280;40102;50.906;6.972;2023-02-02T11:24:23;101778.94;;;6.96;94.57
54194;BME280;40102;50.906;6.972;2023-02-02T11:27:00;101793.16;;;6.95;94.66
54194;BME280;40102;50.906;6.972;2023-02-02T11:35:14;101792.91;;;7.06;93.42
54194;BME280;40102;50.906;6.972;2023-02-02T11:38:14;101780.53;;;7.03;93.40
54194;BME280;40102;50.906;6.972;2023-02-02T11:41:02;101783.25;;;7.02;93.42
54194;BME280;40102;50.906;6.972;2023-02-02T11:43:34;101780.59;;;7.02;93.01
54194;BME280;40102;50.906;6.972;2023-02-02T11:46:13;101801.81;;;7.03;93.00
54194;BME280;40102;50.906;6.972;2023-02-02T11:49:11;101805.22;;;7.10;92.38
54194;BME280;40102;50.906;6.972;2023-02-02T11:51:32;101791.97;;;7.07;92.79
54194;BME280;40102;50.906;6.972;2023-02-02T11:54:21;101793.69;;;7.09;92.42
54194;BME280;40102;50.906;6.972;2023-02-02T11:56:51;101782.22;;;7.07;92.88
54194;BME280;40102;50.906;6.972;2023-02-02T11:59:48;101776.03;;;7.07;92.69
54194;BME280;40102;50.906;6.972;2023-02-02T12:07:34;101773.28;;;7.10;92.32
54194;BME280;40102;50.906;6.972;2023-02-02T12:10:05;101777.63;;;7.14;92.16
54194;BME280;40102;50.906;6.972;2023-02-02T12:12:58;101773.16;;;7.14;91.72
54194;BME280;40102;50.906;6.972;2023-02-02T12:20:49;101759.72;;;7.21;91.17
54194;BME280;40102;50.906;6.972;2023-02-02T12:26:47;101745.50;;;7.22;91.42
54194;BME280;40102;50.906;6.972;2023-02-02T12:29:37;101764.06;;;7.25;90.88
54194;BME280;40102;50.906;6.972;2023-02-02T12:32:50;101749.75;;;7.29;90.67
54194;BME280;40102;50.906;6.972;2023-02-02T12:35:52;101755.94;;;7.29;90.24
54194;BME280;40102;50.906;6.972;2023-02-02T12:38:47;101748.78;;;7.31;90.11
54194;BME280;40102;50.906;6.972;2023-02-02T12:41:27;101771.84;;;7.32;89.89
54194;BME280;40102;50.906;6.972;2023-02-02T12:47:24;101777.72;;;7.45;88.79
54194;BME280;40102;50.906;6.972;2023-02-02T12:55:47;101769.56;;;7.51;88.51
54194;BME280;40102;50.906;6.972;2023-02-02T12:58:26;101762.47;;;7.52;88.55
54194;BME280;40102;50.906;6.972;2023-02-02T13:01:12;101758.97;;;7.50;88.89
54194;BME280;40102;50.906;6.972;2023-02-02T13:09:09;101772.13;;;7.56;88.29
54194;BME280;40102;50.906;6.972;2023-02-02T13:11:41;101783.59;;;7.58;88.26
54194;BME280;40102;50.906;6.972;2023-02-02T13:14:18;101781.84;;;7.57;88.09
54194;BME280;40102;50.906;6.972;2023-02-02T13:16:49;101778.44;;;7.52;88.38
54194;BME280;40102;50.906;6.972;2023-02-02T13:21:51;101776.59;;;7.54;88.49
54194;BME280;40102;50.906;6.972;2023-02-02T13:24:25;101790.75;;;7.56;88.71
54194;BME280;40102;50.906;6.972;2023-02-02T13:26:53;101783.50;;;7.61;87.59
54194;BME280;40102;50.906;6.972;2023-02-02T13:29:26;101788.81;;;7.62;88.04
54194;BME280;40102;50.906;6.972;2023-02-02T13:31:58;101787.00;;;7.63;87.73
54194;BME280;40102;50.906;6.972;2023-02-02T13:37:24;101798.50;;;7.65;87.46
54194;BME280;40102;50.906;6.972;2023-02-02T13:39:58;101791.38;;;7.65;87.49
54194;BME280;40102;50.906;6.972;2023-02-02T13:45:05;101785.97;;;7.68;86.92
54194;BME280;40102;50.906;6.972;2023-02-02T13:47:45;101790.34;;;7.71;86.61
54194;BME280;40102;50.906;6.972;2023-02-02T13:50:15;101790.34;;;7.71;86.85
54194;BME280;40102;50.906;6.972;2023-02-02T13:55:26;101787.50;;;7.77;86.45
54194;BME280;40102;50.906;6.972;2023-02-02T13:58:59;101780.44;;;7.76;86.39
54194;BME280;40102;50.906;6.972;2023-02-02T14:01:08;101785.72;;;7.77;86.10
54194;BME280;40102;50.906;6.972;2023-02-02T14:03:40;101792.94;;;7.74;86.58
54194;BME280;40102;50.906;6.972;2023-02-02T14:06:15;101790.25;;;7.74;86.63
54194;BME280;40102;50.906;6.972;2023-02-02T14:09:01;101794.63;;;7.76;86.83
54194;BME280;40102;50.906;6.972;2023-02-02T14:11:28;101795.53;;;7.75;86.79
54194;BME280;40102;50.906;6.972;2023-02-02T14:13:58;101792.06;;;7.73;86.98
54194;BME280;40102;50.906;6.972;2023-02-02T14:16:49;101804.38;;;7.77;86.52
54194;BME280;40102;50.906;6.972;2023-02-02T14:34:36;101802.34;;;7.87;85.85
54194;BME280;40102;50.906;6.972;2023-02-02T14:45:33;101800.66;;;7.83;86.01
54194;BME280;40102;50.906;6.972;2023-02-02T14:48:16;101805.03;;;7.86;86.13
54194;BME280;40102;50.906;6.972;2023-02-02T14:50:46;101811.31;;;7.83;86.17
54194;BME280;40102;50.906;6.972;2023-02-02T14:53:35;101806.00;;;7.83;86.37
54194;BME280;40102;50.906;6.972;2023-02-02T14:56:08;101800.72;;;7.82;86.27
54194;BME280;40102;50.906;6.972;2023-02-02T15:19:44;101822.69;;;7.90;85.32
54194;BME280;40102;50.906;6.972;2023-02-02T15:22:31;101832.31;;;7.95;85.33
54194;BME280;40102;50.906;6.972;2023-02-02T15:25:02;101828.84;;;7.92;85.54
54194;BME280;40102;50.906;6.972;2023-02-02T15:27:28;101841.28;;;7.91;85.88
54194;BME280;40102;50.906;6.972;2023-02-02T15:30:00;101835.91;;;7.93;86.04
54194;BME280;40102;50.906;6.972;2023-02-02T15:32:27;101838.59;;;7.93;85.98
54194;BME280;40102;50.906;6.972;2023-02-02T15:34:59;101842.16;;;7.92;86.15
54194;BME280;40102;50.906;6.972;2023-02-02T15:37:31;101837.75;;;7.91;85.92
54194;BME280;40102;50.906;6.972;2023-02-02T15:40:09;101849.31;;;7.90;86.01
54194;BME280;40102;50.906;6.972;2023-02-02T15:42:40;101850.25;;;7.89;86.08
54194;BME280;40102;50.906;6.972;2023-02-02T15:45:38;101847.53;;;7.90;85.67
54194;BME280;40102;50.906;6.972;2023-02-02T15:48:19;101852.94;;;7.87;85.90
54194;BME280;40102;50.906;6.972;2023-02-02T15:50:47;101865.09;;;7.97;84.90
54194;BME280;40102;50.906;6.972;2023-02-02T15:53:18;101845.56;;;7.97;84.33
54194;BME280;40102;50.906;6.972;2023-02-02T15:55:44;101845.56;;;7.97;84.08
54194;BME280;40102;50.906;6.972;2023-02-02T15:58:31;101858.78;;;8.01;83.63
54194;BME280;40102;50.906;6.972;2023-02-02T16:01:03;101858.94;;;7.95;84.08
54194;BME280;40102;50.906;6.972;2023-02-02T16:03:37;101874.06;;;7.95;84.70
54194;BME280;40102;50.906;6.972;2023-02-02T16:06:05;101859.84;;;7.94;84.03
54194;BME280;40102;50.906;6.972;2023-02-02T16:08:32;101889.13;;;7.96;84.21